sensor_id;sensor_type;location;lat;lon;timestamp;temperature;humidity
19039;DHT22;9652;49.014;12.052;2024-01-15T00:00:18;1.00;69.70
19039;DHT22;9652;49.014;12.052;2024-01-15T00:02:46;1.00;69.70
19039;DHT22;9652;49.014;12.052;2024-01-15T00:05:14;1.00;69.70
19039;DHT22;9652;49.014;12.052;2024-01-15T00:07:41;1.00;69.70
19039;DHT22;9652;49.014;12.052;2024-01-15T00:10:09;0.90;70.00
19039;DHT22;9652;49.014;12.052;2024-01-15T00:12:36;0.90;70.60
19039;DHT22;9652;49.014;12.052;2024-01-15T00:15:04;1.00;71.30
19039;DHT22;9652;49.014;12.052;2024-01-15T00:17:32;1.00;71.70
19039;DHT22;9652;49.014;12.052;2024-01-15T00:19:59;1.10;72.00
19039;DHT22;9652;49.014;12.052;2024-01-15T00:22:26;1.10;72.20
19039;DHT22;9652;49.014;12.052;2024-01-15T00:24:53;1.20;72.40
19039;DHT22;9652;49.014;12.052;2024-01-15T00:27:22;1.20;72.50
19039;DHT22;9652;49.014;12.052;2024-01-15T00:29:49;1.30;72.60
19039;DHT22;9652;49.014;12.052;2024-01-15T00:32:17;1.40;72.70
19039;DHT22;9652;49.014;12.052;2024-01-15T00:34:45;1.40;72.70
19039;DHT22;9652;49.014;12.052;2024-01-15T00:37:12;1.50;72.80
19039;DHT22;9652;49.014;12.052;2024-01-15T00:39:39;1.50;72.70
19039;DHT22;9652;49.014;12.052;2024-01-15T00:42:06;1.60;72.80
19039;DHT22;9652;49.014;12.052;2024-01-15T00:44:34;1.60;72.50
19039;DHT22;9652;49.014;12.052;2024-01-15T00:47:01;1.70;72.50
19039;DHT22;9652;49.014;12.052;2024-01-15T00:49:28;1.70;72.30
19039;DHT22;9652;49.014;12.052;2024-01-15T00:51:55;1.70;72.20
19039;DHT22;9652;49.014;12.052;2024-01-15T00:54:22;1.80;72.10
19039;DHT22;9652;49.014;12.052;2024-01-15T00:56:49;1.80;72.20
19039;DHT22;9652;49.014;12.052;2024-01-15T00:59:17;1.80;72.10
19039;DHT22;9652;49.014;12.052;2024-01-15T01:01:47;1.80;71.90
19039;DHT22;9652;49.014;12.052;2024-01-15T01:04:14;1.90;71.90
19039;DHT22;9652;49.014;12.052;2024-01-15T01:06:41;1.90;71.80
19039;DHT22;9652;49.014;12.052;2024-01-15T01:09:09;1.90;71.60
19039;DHT22;9652;49.014;12.052;2024-01-15T01:11:36;1.90;71.60
19039;DHT22;9652;49.014;12.052;2024-01-15T01:14:03;1.90;71.60
19039;DHT22;9652;49.014;12.052;2024-01-15T01:16:30;2.00;71.70
19039;DHT22;9652;49.014;12.052;2024-01-15T01:19:05;2.00;71.70
19039;DHT22;9652;49.014;12.052;2024-01-15T01:21:33;2.00;71.80
19039;DHT22;9652;49.014;12.052;2024-01-15T01:24:00;2.10;71.80
19039;DHT22;9652;49.014;12.052;2024-01-15T01:26:27;2.10;71.70
19039;DHT22;9652;49.014;12.052;2024-01-15T01:28:54;2.10;71.50
19039;DHT22;9652;49.014;12.052;2024-01-15T01:31:21;2.20;71.60
19039;DHT22;9652;49.014;12.052;2024-01-15T01:33:48;2.20;72.30
19039;DHT22;9652;49.014;12.052;2024-01-15T01:36:16;2.20;71.50
19039;DHT22;9652;49.014;12.052;2024-01-15T01:38:43;2.20;71.40
19039;DHT22;9652;49.014;12.052;2024-01-15T01:41:10;2.20;71.40
19039;DHT22;9652;49.014;12.052;2024-01-15T01:43:38;2.20;71.40
19039;DHT22;9652;49.014;12.052;2024-01-15T01:46:05;2.20;71.40
19039;DHT22;9652;49.014;12.052;2024-01-15T01:48:33;2.20;71.20
19039;DHT22;9652;49.014;12.052;2024-01-15T01:51:02;2.20;71.30
19039;DHT22;9652;49.014;12.052;2024-01-15T01:53:32;2.20;71.40
19039;DHT22;9652;49.014;12.052;2024-01-15T01:56:02;2.30;71.50
19039;DHT22;9652;49.014;12.052;2024-01-15T01:58:32;2.20;71.50
19039;DHT22;9652;49.014;12.052;2024-01-15T02:00:59;2.20;71.50
19039;DHT22;9652;49.014;12.052;2024-01-15T02:03:27;2.20;71.40
19039;DHT22;9652;49.014;12.052;2024-01-15T02:05:55;2.20;71.40
19039;DHT22;9652;49.014;12.052;2024-01-15T02:08:23;2.10;71.30
19039;DHT22;9652;49.014;12.052;2024-01-15T02:10:51;2.20;71.40
19039;DHT22;9652;49.014;12.052;2024-01-15T02:13:19;2.20;71.50
19039;DHT22;9652;49.014;12.052;2024-01-15T02:15:47;2.20;71.30
19039;DHT22;9652;49.014;12.052;2024-01-15T02:18:14;2.20;71.30
19039;DHT22;9652;49.014;12.052;2024-01-15T02:20:41;2.20;71.30
19039;DHT22;9652;49.014;12.052;2024-01-15T02:23:12;2.20;71.30
19039;DHT22;9652;49.014;12.052;2024-01-15T02:25:40;2.20;71.30
19039;DHT22;9652;49.014;12.052;2024-01-15T02:28:10;2.20;71.40
19039;DHT22;9652;49.014;12.052;2024-01-15T02:30:39;2.10;71.40
19039;DHT22;9652;49.014;12.052;2024-01-15T02:33:08;2.20;71.50
19039;DHT22;9652;49.014;12.052;2024-01-15T02:35:36;2.20;71.60
19039;DHT22;9652;49.014;12.052;2024-01-15T02:38:04;2.20;71.60
19039;DHT22;9652;49.014;12.052;2024-01-15T02:40:33;2.20;71.60
19039;DHT22;9652;49.014;12.052;2024-01-15T02:43:00;2.20;71.50
19039;DHT22;9652;49.014;12.052;2024-01-15T02:45:27;2.20;71.40
19039;DHT22;9652;49.014;12.052;2024-01-15T02:47:54;2.20;71.40
19039;DHT22;9652;49.014;12.052;2024-01-15T02:50:21;2.20;71.60
19039;DHT22;9652;49.014;12.052;2024-01-15T02:52:49;2.20;71.60
19039;DHT22;9652;49.014;12.052;2024-01-15T02:55:16;2.20;71.80
19039;DHT22;9652;49.014;12.052;2024-01-15T02:57:44;2.30;71.90
19039;DHT22;9652;49.014;12.052;2024-01-15T03:00:12;2.30;72.00
19039;DHT22;9652;49.014;12.052;2024-01-15T03:02:40;2.30;72.00
19039;DHT22;9652;49.014;12.052;2024-01-15T03:05:10;2.30;72.00
19039;DHT22;9652;49.014;12.052;2024-01-15T03:07:38;2.40;72.90
19039;DHT22;9652;49.014;12.052;2024-01-15T03:10:06;2.30;72.00
19039;DHT22;9652;49.014;12.052;2024-01-15T03:12:33;2.40;72.20
19039;DHT22;9652;49.014;12.052;2024-01-15T03:15:02;2.40;72.10
19039;DHT22;9652;49.014;12.052;2024-01-15T03:17:30;2.20;71.80
19039;DHT22;9652;49.014;12.052;2024-01-15T03:19:57;2.40;71.80
19039;DHT22;9652;49.014;12.052;2024-01-15T03:22:24;2.50;71.90
19039;DHT22;9652;49.014;12.052;2024-01-15T03:24:52;2.50;71.90
19039;DHT22;9652;49.014;12.052;2024-01-15T03:27:20;2.50;71.90
19039;DHT22;9652;49.014;12.052;2024-01-15T03:29:47;2.50;71.90
19039;DHT22;9652;49.014;12.052;2024-01-15T03:32:15;2.50;71.80
19039;DHT22;9652;49.014;12.052;2024-01-15T03:34:42;2.60;72.00
19039;DHT22;9652;49.014;12.052;2024-01-15T03:37:09;2.60;71.90
19039;DHT22;9652;49.014;12.052;2024-01-15T03:39:36;2.60;71.90
19039;DHT22;9652;49.014;12.052;2024-01-15T03:42:03;2.60;71.70
19039;DHT22;9652;49.014;12.052;2024-01-15T03:44:31;2.60;71.70
19039;DHT22;9652;49.014;12.052;2024-01-15T03:46:58;2.60;71.70
19039;DHT22;9652;49.014;12.052;2024-01-15T03:49:26;2.60;71.70
19039;DHT22;9652;49.014;12.052;2024-01-15T03:51:53;2.60;71.70
19039;DHT22;9652;49.014;12.052;2024-01-15T03:54:20;2.60;71.60
19039;DHT22;9652;49.014;12.052;2024-01-15T03:56:47;2.60;72.50
19039;DHT22;9652;49.014;12.052;2024-01-15T03:59:14;2.60;71.80
19039;DHT22;9652;49.014;12.052;2024-01-15T04:01:48;2.70;71.80
19039;DHT22;9652;49.014;12.052;2024-01-15T04:04:16;2.60;71.70
19039;DHT22;9652;49.014;12.052;2024-01-15T04:06:45;2.70;71.60
19039;DHT22;9652;49.014;12.052;2024-01-15T04:09:12;2.60;71.30
19039;DHT22;9652;49.014;12.052;2024-01-15T04:11:40;2.60;71.20
19039;DHT22;9652;49.014;12.052;2024-01-15T04:14:07;2.60;71.10
19039;DHT22;9652;49.014;12.052;2024-01-15T04:16:34;2.50;71.10
19039;DHT22;9652;49.014;12.052;2024-01-15T04:19:01;2.50;71.10
19039;DHT22;9652;49.014;12.052;2024-01-15T04:21:28;2.50;72.00
19039;DHT22;9652;49.014;12.052;2024-01-15T04:23:57;2.50;71.50
19039;DHT22;9652;49.014;12.052;2024-01-15T04:26:24;2.50;71.60
19039;DHT22;9652;49.014;12.052;2024-01-15T04:28:51;2.50;71.90
19039;DHT22;9652;49.014;12.052;2024-01-15T04:31:23;2.50;72.20
19039;DHT22;9652;49.014;12.052;2024-01-15T04:33:52;2.50;72.30
19039;DHT22;9652;49.014;12.052;2024-01-15T04:36:19;2.50;72.50
19039;DHT22;9652;49.014;12.052;2024-01-15T04:38:46;2.60;72.70
19039;DHT22;9652;49.014;12.052;2024-01-15T04:41:16;2.60;72.70
19039;DHT22;9652;49.014;12.052;2024-01-15T04:43:43;2.60;73.00
19039;DHT22;9652;49.014;12.052;2024-01-15T04:46:11;2.60;72.90
19039;DHT22;9652;49.014;12.052;2024-01-15T04:48:38;2.60;73.10
19039;DHT22;9652;49.014;12.052;2024-01-15T04:51:05;2.60;73.20
19039;DHT22;9652;49.014;12.052;2024-01-15T04:53:34;2.60;73.40
19039;DHT22;9652;49.014;12.052;2024-01-15T04:56:01;2.60;73.40
19039;DHT22;9652;49.014;12.052;2024-01-15T04:58:30;2.70;73.40
19039;DHT22;9652;49.014;12.052;2024-01-15T05:00:57;2.70;73.40
19039;DHT22;9652;49.014;12.052;2024-01-15T05:03:24;2.60;73.40
19039;DHT22;9652;49.014;12.052;2024-01-15T05:05:51;2.60;73.50
19039;DHT22;9652;49.014;12.052;2024-01-15T05:08:18;2.70;73.60
19039;DHT22;9652;49.014;12.052;2024-01-15T05:10:45;2.70;73.70
19039;DHT22;9652;49.014;12.052;2024-01-15T05:13:12;2.70;73.60
19039;DHT22;9652;49.014;12.052;2024-01-15T05:15:41;2.70;73.60
19039;DHT22;9652;49.014;12.052;2024-01-15T05:18:08;2.70;73.50
19039;DHT22;9652;49.014;12.052;2024-01-15T05:20:35;2.80;73.50
19039;DHT22;9652;49.014;12.052;2024-01-15T05:23:02;2.70;73.40
19039;DHT22;9652;49.014;12.052;2024-01-15T05:25:29;2.80;73.60
19039;DHT22;9652;49.014;12.052;2024-01-15T05:27:57;2.80;73.60
19039;DHT22;9652;49.014;12.052;2024-01-15T05:30:24;2.80;73.60
19039;DHT22;9652;49.014;12.052;2024-01-15T05:32:52;2.80;73.50
19039;DHT22;9652;49.014;12.052;2024-01-15T05:35:19;2.80;73.50
19039;DHT22;9652;49.014;12.052;2024-01-15T05:37:46;2.80;73.50
19039;DHT22;9652;49.014;12.052;2024-01-15T05:40:14;2.80;73.40
19039;DHT22;9652;49.014;12.052;2024-01-15T05:42:41;2.90;73.40
19039;DHT22;9652;49.014;12.052;2024-01-15T05:45:08;2.90;73.30
19039;DHT22;9652;49.014;12.052;2024-01-15T05:47:36;2.90;74.10
19039;DHT22;9652;49.014;12.052;2024-01-15T05:50:05;2.90;73.40
19039;DHT22;9652;49.014;12.052;2024-01-15T05:52:32;2.90;73.40
19039;DHT22;9652;49.014;12.052;2024-01-15T05:54:59;2.90;73.40
19039;DHT22;9652;49.014;12.052;2024-01-15T05:57:26;2.90;74.20
19039;DHT22;9652;49.014;12.052;2024-01-15T05:59:54;2.90;73.30
19039;DHT22;9652;49.014;12.052;2024-01-15T06:02:21;2.90;73.30
19039;DHT22;9652;49.014;12.052;2024-01-15T06:04:48;2.90;73.40
19039;DHT22;9652;49.014;12.052;2024-01-15T06:07:16;2.90;73.40
19039;DHT22;9652;49.014;12.052;2024-01-15T06:09:43;2.90;73.30
19039;DHT22;9652;49.014;12.052;2024-01-15T06:12:10;2.90;73.40
19039;DHT22;9652;49.014;12.052;2024-01-15T06:14:38;3.00;73.40
19039;DHT22;9652;49.014;12.052;2024-01-15T06:17:05;3.00;73.50
19039;DHT22;9652;49.014;12.052;2024-01-15T06:19:32;3.00;73.50
19039;DHT22;9652;49.014;12.052;2024-01-15T06:21:59;3.00;73.40
19039;DHT22;9652;49.014;12.052;2024-01-15T06:24:27;3.00;73.50
19039;DHT22;9652;49.014;12.052;2024-01-15T06:26:54;3.00;73.50
19039;DHT22;9652;49.014;12.052;2024-01-15T06:29:21;3.00;73.50
19039;DHT22;9652;49.014;12.052;2024-01-15T06:31:49;3.10;73.60
19039;DHT22;9652;49.014;12.052;2024-01-15T06:34:16;3.10;73.60
19039;DHT22;9652;49.014;12.052;2024-01-15T06:36:43;3.10;73.60
19039;DHT22;9652;49.014;12.052;2024-01-15T06:39:10;3.10;73.60
19039;DHT22;9652;49.014;12.052;2024-01-15T06:41:39;3.10;73.50
19039;DHT22;9652;49.014;12.052;2024-01-15T06:44:09;3.20;73.50
19039;DHT22;9652;49.014;12.052;2024-01-15T06:46:36;3.20;73.50
19039;DHT22;9652;49.014;12.052;2024-01-15T06:49:08;3.20;73.60
19039;DHT22;9652;49.014;12.052;2024-01-15T06:51:35;3.20;73.50
19039;DHT22;9652;49.014;12.052;2024-01-15T06:54:02;3.20;73.40
19039;DHT22;9652;49.014;12.052;2024-01-15T06:56:30;3.20;73.30
19039;DHT22;9652;49.014;12.052;2024-01-15T06:58:59;3.20;73.30
19039;DHT22;9652;49.014;12.052;2024-01-15T07:01:26;3.30;73.30
19039;DHT22;9652;49.014;12.052;2024-01-15T07:03:53;3.20;73.20
19039;DHT22;9652;49.014;12.052;2024-01-15T07:06:20;3.20;73.10
19039;DHT22;9652;49.014;12.052;2024-01-15T07:08:47;3.20;73.20
19039;DHT22;9652;49.014;12.052;2024-01-15T07:11:15;3.20;73.20
19039;DHT22;9652;49.014;12.052;2024-01-15T07:13:42;3.30;73.30
19039;DHT22;9652;49.014;12.052;2024-01-15T07:16:11;3.30;73.30
19039;DHT22;9652;49.014;12.052;2024-01-15T07:18:38;3.30;73.30
19039;DHT22;9652;49.014;12.052;2024-01-15T07:21:05;3.30;73.30
19039;DHT22;9652;49.014;12.052;2024-01-15T07:23:32;3.30;73.30
19039;DHT22;9652;49.014;12.052;2024-01-15T07:25:59;3.30;73.40
19039;DHT22;9652;49.014;12.052;2024-01-15T07:28:28;3.30;73.40
19039;DHT22;9652;49.014;12.052;2024-01-15T07:30:56;3.40;73.30
19039;DHT22;9652;49.014;12.052;2024-01-15T07:33:26;3.40;73.30
19039;DHT22;9652;49.014;12.052;2024-01-15T07:35:53;3.40;73.30
19039;DHT22;9652;49.014;12.052;2024-01-15T07:38:20;3.40;73.30
19039;DHT22;9652;49.014;12.052;2024-01-15T07:40:48;3.50;73.40
19039;DHT22;9652;49.014;12.052;2024-01-15T07:43:15;3.50;73.30
19039;DHT22;9652;49.014;12.052;2024-01-15T07:45:42;3.50;73.50
19039;DHT22;9652;49.014;12.052;2024-01-15T07:48:08;3.50;73.30
19039;DHT22;9652;49.014;12.052;2024-01-15T07:50:37;3.50;73.40
19039;DHT22;9652;49.014;12.052;2024-01-15T07:53:04;3.60;73.50
19039;DHT22;9652;49.014;12.052;2024-01-15T07:55:31;3.60;73.50
19039;DHT22;9652;49.014;12.052;2024-01-15T07:57:58;3.60;73.60
19039;DHT22;9652;49.014;12.052;2024-01-15T08:00:25;3.70;73.50
19039;DHT22;9652;49.014;12.052;2024-01-15T08:02:52;3.70;73.40
19039;DHT22;9652;49.014;12.052;2024-01-15T08:05:19;3.70;73.30
19039;DHT22;9652;49.014;12.052;2024-01-15T08:07:49;3.80;73.40
19039;DHT22;9652;49.014;12.052;2024-01-15T08:10:16;3.80;73.30
19039;DHT22;9652;49.014;12.052;2024-01-15T08:12:43;3.80;73.30
19039;DHT22;9652;49.014;12.052;2024-01-15T08:15:10;3.90;73.40
19039;DHT22;9652;49.014;12.052;2024-01-15T08:17:37;3.90;73.30
19039;DHT22;9652;49.014;12.052;2024-01-15T08:20:05;3.90;73.20
19039;DHT22;9652;49.014;12.052;2024-01-15T08:22:33;4.00;73.10
19039;DHT22;9652;49.014;12.052;2024-01-15T08:25:01;4.10;73.10
19039;DHT22;9652;49.014;12.052;2024-01-15T08:27:29;4.00;73.00
19039;DHT22;9652;49.014;12.052;2024-01-15T08:29:56;4.10;72.90
19039;DHT22;9652;49.014;12.052;2024-01-15T08:32:23;4.10;72.90
19039;DHT22;9652;49.014;12.052;2024-01-15T08:34:50;4.10;72.90
19039;DHT22;9652;49.014;12.052;2024-01-15T08:37:18;4.20;72.90
19039;DHT22;9652;49.014;12.052;2024-01-15T08:39:45;4.20;73.10
19039;DHT22;9652;49.014;12.052;2024-01-15T08:42:13;4.20;73.30
19039;DHT22;9652;49.014;12.052;2024-01-15T08:44:40;4.30;73.30
19039;DHT22;9652;49.014;12.052;2024-01-15T08:47:09;4.40;73.40
19039;DHT22;9652;49.014;12.052;2024-01-15T08:49:36;4.40;72.90
19039;DHT22;9652;49.014;12.052;2024-01-15T08:52:03;4.40;72.70
19039;DHT22;9652;49.014;12.052;2024-01-15T08:54:30;4.40;72.40
19039;DHT22;9652;49.014;12.052;2024-01-15T08:56:57;4.50;72.60
19039;DHT22;9652;49.014;12.052;2024-01-15T08:59:26;4.50;72.70
19039;DHT22;9652;49.014;12.052;2024-01-15T09:01:54;4.50;72.90
19039;DHT22;9652;49.014;12.052;2024-01-15T09:04:22;4.60;72.90
19039;DHT22;9652;49.014;12.052;2024-01-15T09:06:50;4.60;72.90
19039;DHT22;9652;49.014;12.052;2024-01-15T09:09:17;4.70;72.70
19039;DHT22;9652;49.014;12.052;2024-01-15T09:11:45;4.70;72.80
19039;DHT22;9652;49.014;12.052;2024-01-15T09:14:12;4.80;72.90
19039;DHT22;9652;49.014;12.052;2024-01-15T09:16:41;4.80;72.70
19039;DHT22;9652;49.014;12.052;2024-01-15T09:19:08;4.80;72.50
19039;DHT22;9652;49.014;12.052;2024-01-15T09:21:35;4.90;72.70
19039;DHT22;9652;49.014;12.052;2024-01-15T09:24:04;5.40;72.80
19039;DHT22;9652;49.014;12.052;2024-01-15T09:26:32;5.00;72.60
19039;DHT22;9652;49.014;12.052;2024-01-15T09:28:59;5.00;72.20
19039;DHT22;9652;49.014;12.052;2024-01-15T09:31:26;5.10;72.40
19039;DHT22;9652;49.014;12.052;2024-01-15T09:33:55;5.10;72.40
19039;DHT22;9652;49.014;12.052;2024-01-15T09:36:24;5.10;72.50
19039;DHT22;9652;49.014;12.052;2024-01-15T09:38:51;5.20;72.40
19039;DHT22;9652;49.014;12.052;2024-01-15T09:41:18;5.20;72.20
19039;DHT22;9652;49.014;12.052;2024-01-15T09:43:45;5.20;72.20
19039;DHT22;9652;49.014;12.052;2024-01-15T09:46:13;5.30;72.00
19039;DHT22;9652;49.014;12.052;2024-01-15T09:48:42;5.20;72.00
19039;DHT22;9652;49.014;12.052;2024-01-15T09:51:10;5.20;72.10
19039;DHT22;9652;49.014;12.052;2024-01-15T09:53:38;5.30;72.10
19039;DHT22;9652;49.014;12.052;2024-01-15T09:56:08;5.30;71.80
19039;DHT22;9652;49.014;12.052;2024-01-15T09:58:38;5.30;71.60
19039;DHT22;9652;49.014;12.052;2024-01-15T10:01:08;5.30;71.70
19039;DHT22;9652;49.014;12.052;2024-01-15T10:03:35;5.30;71.80
19039;DHT22;9652;49.014;12.052;2024-01-15T10:06:04;5.30;71.80
19039;DHT22;9652;49.014;12.052;2024-01-15T10:08:35;5.30;71.90
19039;DHT22;9652;49.014;12.052;2024-01-15T10:11:03;5.30;72.20
19039;DHT22;9652;49.014;12.052;2024-01-15T10:13:30;5.30;72.70
19039;DHT22;9652;49.014;12.052;2024-01-15T10:15:58;5.40;72.90
19039;DHT22;9652;49.014;12.052;2024-01-15T10:18:26;5.40;72.80
19039;DHT22;9652;49.014;12.052;2024-01-15T10:20:53;5.40;72.70
19039;DHT22;9652;49.014;12.052;2024-01-15T10:23:20;5.40;72.50
19039;DHT22;9652;49.014;12.052;2024-01-15T10:25:50;5.40;72.60
19039;DHT22;9652;49.014;12.052;2024-01-15T10:28:19;5.40;72.80
19039;DHT22;9652;49.014;12.052;2024-01-15T10:30:46;5.40;73.10
19039;DHT22;9652;49.014;12.052;2024-01-15T10:33:21;5.40;73.30
19039;DHT22;9652;49.014;12.052;2024-01-15T10:35:53;5.40;73.50
19039;DHT22;9652;49.014;12.052;2024-01-15T10:38:21;5.40;73.70
19039;DHT22;9652;49.014;12.052;2024-01-15T10:40:52;5.40;73.80
19039;DHT22;9652;49.014;12.052;2024-01-15T10:43:20;5.40;73.80
19039;DHT22;9652;49.014;12.052;2024-01-15T10:45:50;5.40;73.90
19039;DHT22;9652;49.014;12.052;2024-01-15T10:48:19;5.30;73.70
19039;DHT22;9652;49.014;12.052;2024-01-15T10:50:47;5.40;73.80
19039;DHT22;9652;49.014;12.052;2024-01-15T10:53:16;5.40;73.50
19039;DHT22;9652;49.014;12.052;2024-01-15T10:55:46;5.40;73.60
19039;DHT22;9652;49.014;12.052;2024-01-15T10:58:16;5.40;73.70
19039;DHT22;9652;49.014;12.052;2024-01-15T11:00:44;5.50;73.70
19039;DHT22;9652;49.014;12.052;2024-01-15T11:03:11;5.50;73.70
19039;DHT22;9652;49.014;12.052;2024-01-15T11:05:40;5.50;73.60
19039;DHT22;9652;49.014;12.052;2024-01-15T11:08:09;5.60;73.60
19039;DHT22;9652;49.014;12.052;2024-01-15T11:10:41;5.60;73.50
19039;DHT22;9652;49.014;12.052;2024-01-15T11:13:15;5.60;72.80
19039;DHT22;9652;49.014;12.052;2024-01-15T11:16:05;5.60;72.70
19039;DHT22;9652;49.014;12.052;2024-01-15T11:18:35;5.60;71.90
19039;DHT22;9652;49.014;12.052;2024-01-15T11:21:22;5.70;72.60
19039;DHT22;9652;49.014;12.052;2024-01-15T11:23:53;5.70;72.20
19039;DHT22;9652;49.014;12.052;2024-01-15T11:26:30;5.80;73.10
19039;DHT22;9652;49.014;12.052;2024-01-15T11:29:01;5.80;72.20
19039;DHT22;9652;49.014;12.052;2024-01-15T11:31:56;5.80;72.20
19039;DHT22;9652;49.014;12.052;2024-01-15T11:34:54;6.00;72.20
19039;DHT22;9652;49.014;12.052;2024-01-15T11:37:25;6.00;71.00
19039;DHT22;9652;49.014;12.052;2024-01-15T11:39:54;6.00;71.60
19039;DHT22;9652;49.014;12.052;2024-01-15T11:42:22;6.00;71.70
19039;DHT22;9652;49.014;12.052;2024-01-15T11:44:51;6.00;71.40
19039;DHT22;9652;49.014;12.052;2024-01-15T11:47:46;6.00;71.50
19039;DHT22;9652;49.014;12.052;2024-01-15T11:50:30;6.10;70.70
19039;DHT22;9652;49.014;12.052;2024-01-15T11:53:01;6.10;71.30
19039;DHT22;9652;49.014;12.052;2024-01-15T11:55:33;6.10;71.90
19039;DHT22;9652;49.014;12.052;2024-01-15T11:58:02;6.10;70.80
19039;DHT22;9652;49.014;12.052;2024-01-15T12:00:39;6.10;70.50
19039;DHT22;9652;49.014;12.052;2024-01-15T12:03:09;6.10;70.10
19039;DHT22;9652;49.014;12.052;2024-01-15T12:05:37;6.10;70.10
19039;DHT22;9652;49.014;12.052;2024-01-15T12:08:05;6.10;70.20
19039;DHT22;9652;49.014;12.052;2024-01-15T12:10:36;6.00;70.50
19039;DHT22;9652;49.014;12.052;2024-01-15T12:13:10;6.00;70.50
19039;DHT22;9652;49.014;12.052;2024-01-15T12:15:40;6.00;70.50
19039;DHT22;9652;49.014;12.052;2024-01-15T12:18:10;6.00;70.50
19039;DHT22;9652;49.014;12.052;2024-01-15T12:20:40;5.90;70.50
19039;DHT22;9652;49.014;12.052;2024-01-15T12:23:09;5.90;70.40
19039;DHT22;9652;49.014;12.052;2024-01-15T12:25:36;5.90;70.50
19039;DHT22;9652;49.014;12.052;2024-01-15T12:28:05;5.90;70.70
19039;DHT22;9652;49.014;12.052;2024-01-15T12:30:34;5.80;70.90
19039;DHT22;9652;49.014;12.052;2024-01-15T12:33:04;5.80;71.10
19039;DHT22;9652;49.014;12.052;2024-01-15T12:35:32;5.80;70.70
19039;DHT22;9652;49.014;12.052;2024-01-15T12:38:01;5.80;70.90
19039;DHT22;9652;49.014;12.052;2024-01-15T12:40:30;5.80;71.10
19039;DHT22;9652;49.014;12.052;2024-01-15T12:42:58;5.70;71.30
19039;DHT22;9652;49.014;12.052;2024-01-15T12:45:25;5.70;71.60
19039;DHT22;9652;49.014;12.052;2024-01-15T12:47:52;5.70;71.70
19039;DHT22;9652;49.014;12.052;2024-01-15T12:50:24;5.70;72.00
19039;DHT22;9652;49.014;12.052;2024-01-15T12:52:52;5.70;72.10
19039;DHT22;9652;49.014;12.052;2024-01-15T12:55:19;5.70;72.20
19039;DHT22;9652;49.014;12.052;2024-01-15T12:57:46;5.70;72.10
19039;DHT22;9652;49.014;12.052;2024-01-15T13:00:14;5.70;72.00
19039;DHT22;9652;49.014;12.052;2024-01-15T13:02:42;5.70;71.80
19039;DHT22;9652;49.014;12.052;2024-01-15T13:05:10;5.60;71.90
19039;DHT22;9652;49.014;12.052;2024-01-15T13:07:39;5.60;71.90
19039;DHT22;9652;49.014;12.052;2024-01-15T13:10:07;5.60;72.10
19039;DHT22;9652;49.014;12.052;2024-01-15T13:12:35;5.60;72.10
19039;DHT22;9652;49.014;12.052;2024-01-15T13:15:02;5.60;72.00
19039;DHT22;9652;49.014;12.052;2024-01-15T13:17:30;5.50;72.00
19039;DHT22;9652;49.014;12.052;2024-01-15T13:19:57;5.50;72.10
19039;DHT22;9652;49.014;12.052;2024-01-15T13:22:24;5.50;71.90
19039;DHT22;9652;49.014;12.052;2024-01-15T13:24:57;5.50;72.20
19039;DHT22;9652;49.014;12.052;2024-01-15T13:27:24;5.50;72.30
19039;DHT22;9652;49.014;12.052;2024-01-15T13:29:51;5.50;72.50
19039;DHT22;9652;49.014;12.052;2024-01-15T13:32:23;5.40;72.70
19039;DHT22;9652;49.014;12.052;2024-01-15T13:34:51;5.40;72.50
19039;DHT22;9652;49.014;12.052;2024-01-15T13:37:19;5.40;72.60
19039;DHT22;9652;49.014;12.052;2024-01-15T13:39:46;5.40;72.60
19039;DHT22;9652;49.014;12.052;2024-01-15T13:42:14;5.40;72.70
19039;DHT22;9652;49.014;12.052;2024-01-15T13:44:41;5.40;72.60
19039;DHT22;9652;49.014;12.052;2024-01-15T13:47:08;5.40;72.80
19039;DHT22;9652;49.014;12.052;2024-01-15T13:49:36;5.30;73.00
19039;DHT22;9652;49.014;12.052;2024-01-15T13:52:03;5.30;73.40
19039;DHT22;9652;49.014;12.052;2024-01-15T13:54:30;5.30;74.40
19039;DHT22;9652;49.014;12.052;2024-01-15T13:56:57;5.20;73.80
19039;DHT22;9652;49.014;12.052;2024-01-15T13:59:26;5.30;74.00
19039;DHT22;9652;49.014;12.052;2024-01-15T14:01:54;5.20;74.00
19039;DHT22;9652;49.014;12.052;2024-01-15T14:04:21;5.20;74.00
19039;DHT22;9652;49.014;12.052;2024-01-15T14:06:48;5.20;74.00
19039;DHT22;9652;49.014;12.052;2024-01-15T14:09:15;5.20;74.10
19039;DHT22;9652;49.014;12.052;2024-01-15T14:11:42;5.20;74.20
19039;DHT22;9652;49.014;12.052;2024-01-15T14:14:09;5.20;74.40
19039;DHT22;9652;49.014;12.052;2024-01-15T14:16:37;5.20;74.50
19039;DHT22;9652;49.014;12.052;2024-01-15T14:19:04;5.10;74.50
19039;DHT22;9652;49.014;12.052;2024-01-15T14:21:35;5.10;74.50
19039;DHT22;9652;49.014;12.052;2024-01-15T14:24:02;5.10;74.70
19039;DHT22;9652;49.014;12.052;2024-01-15T14:26:29;5.10;74.80
19039;DHT22;9652;49.014;12.052;2024-01-15T14:28:56;5.00;74.90
19039;DHT22;9652;49.014;12.052;2024-01-15T14:31:24;5.00;75.00
19039;DHT22;9652;49.014;12.052;2024-01-15T14:33:53;5.00;75.20
19039;DHT22;9652;49.014;12.052;2024-01-15T14:36:20;4.90;75.20
19039;DHT22;9652;49.014;12.052;2024-01-15T14:38:47;4.90;75.40
19039;DHT22;9652;49.014;12.052;2024-01-15T14:41:16;4.90;75.60
19039;DHT22;9652;49.014;12.052;2024-01-15T14:43:43;4.90;75.80
19039;DHT22;9652;49.014;12.052;2024-01-15T14:46:10;4.90;75.90
19039;DHT22;9652;49.014;12.052;2024-01-15T14:48:37;4.90;76.00
19039;DHT22;9652;49.014;12.052;2024-01-15T14:51:07;4.80;76.00
19039;DHT22;9652;49.014;12.052;2024-01-15T14:53:34;4.80;76.10
19039;DHT22;9652;49.014;12.052;2024-01-15T14:56:01;4.80;76.10
19039;DHT22;9652;49.014;12.052;2024-01-15T14:58:29;4.80;76.20
19039;DHT22;9652;49.014;12.052;2024-01-15T15:00:57;4.80;76.40
19039;DHT22;9652;49.014;12.052;2024-01-15T15:03:24;4.80;76.60
19039;DHT22;9652;49.014;12.052;2024-01-15T15:05:51;4.80;76.70
19039;DHT22;9652;49.014;12.052;2024-01-15T15:08:20;4.80;76.70
19039;DHT22;9652;49.014;12.052;2024-01-15T15:10:47;4.80;76.90
19039;DHT22;9652;49.014;12.052;2024-01-15T15:13:14;4.80;77.00
19039;DHT22;9652;49.014;12.052;2024-01-15T15:15:41;4.80;77.10
19039;DHT22;9652;49.014;12.052;2024-01-15T15:18:09;4.80;77.10
19039;DHT22;9652;49.014;12.052;2024-01-15T15:20:36;4.80;77.20
19039;DHT22;9652;49.014;12.052;2024-01-15T15:23:03;4.80;77.30
19039;DHT22;9652;49.014;12.052;2024-01-15T15:25:35;4.80;77.40
19039;DHT22;9652;49.014;12.052;2024-01-15T15:28:02;4.80;77.30
19039;DHT22;9652;49.014;12.052;2024-01-15T15:30:30;4.80;77.40
19039;DHT22;9652;49.014;12.052;2024-01-15T15:32:57;4.80;77.40
19039;DHT22;9652;49.014;12.052;2024-01-15T15:35:24;4.80;77.50
19039;DHT22;9652;49.014;12.052;2024-01-15T15:37:52;4.80;77.40
19039;DHT22;9652;49.014;12.052;2024-01-15T15:40:19;4.80;77.50
19039;DHT22;9652;49.014;12.052;2024-01-15T15:42:47;4.80;77.50
19039;DHT22;9652;49.014;12.052;2024-01-15T15:45:14;4.80;77.50
19039;DHT22;9652;49.014;12.052;2024-01-15T15:47:41;4.70;77.50
19039;DHT22;9652;49.014;12.052;2024-01-15T15:50:08;4.70;77.60